sensor_id;sensor_type;location;lat;lon;timestamp;pressure;altitude;pressure_sealevel;temperature;humidity
39265;BME280;42646;51.910;7.724;2023-11-21T00:00:09;100389.91;;;6.12;100.00
39265;BME280;42646;51.910;7.724;2023-11-21T00:02:38;100397.69;;;6.14;100.00
39265;BME280;42646;51.910;7.724;2023-11-21T00:05:07;100396.53;;;6.18;100.00
39265;BME280;42646;51.910;7.724;2023-11-21T00:07:36;100398.06;;;6.21;100.00
39265;BME280;42646;51.910;7.724;2023-11-21T00:10:04;100403.22;;;6.22;100.00
39265;BME280;42646;51.910;7.724;2023-11-21T00:12:32;100404.81;;;6.25;100.00
39265;BME280;42646;51.910;7.724;2023-11-21T00:15:02;100405.53;;;6.27;100.00
39265;BME280;42646;51.910;7.724;2023-11-21T00:17:31;100413.31;;;6.28;100.00
39265;BME280;42646;51.910;7.724;2023-11-21T00:19:59;100412.41;;;6.29;100.00
39265;BME280;42646;51.910;7.724;2023-11-21T00:22:27;100417.56;;;6.31;100.00
39265;BME280;42646;51.910;7.724;2023-11-21T00:24:54;100413.94;;;6.32;100.00
39265;BME280;42646;51.910;7.724;2023-11-21T00:27:22;100415.63;;;6.33;100.00
39265;BME280;42646;51.910;7.724;2023-11-21T00:29:50;100414.66;;;6.34;100.00
39265;BME280;42646;51.910;7.724;2023-11-21T00:32:19;100417.09;;;6.37;100.00
39265;BME280;42646;51.910;7.724;2023-11-21T00:34:46;100421.41;;;6.38;100.00
39265;BME280;42646;51.910;7.724;2023-11-21T00:37:14;100421.19;;;6.41;100.00
39265;BME280;42646;51.910;7.724;2023-11-21T00:39:42;100424.53;;;6.43;100.00
39265;BME280;42646;51.910;7.724;2023-11-21T00:42:10;100420.72;;;6.47;100.00
39265;BME280;42646;51.910;7.724;2023-11-21T00:44:39;100423.09;;;6.50;100.00
39265;BME280;42646;51.910;7.724;2023-11-21T00:47:07;100422.88;;;6.53;100.00
39265;BME280;42646;51.910;7.724;2023-11-21T00:49:37;100419.03;;;6.57;100.00
39265;BME280;42646;51.910;7.724;2023-11-21T00:52:06;100429.50;;;6.59;100.00
39265;BME280;42646;51.910;7.724;2023-11-21T00:54:34;100423.97;;;6.62;100.00
39265;BME280;42646;51.910;7.724;2023-11-21T00:57:02;100427.31;;;6.64;100.00
39265;BME280;42646;51.910;7.724;2023-11-21T00:59:30;100430.59;;;6.67;100.00
39265;BME280;42646;51.910;7.724;2023-11-21T01:01:58;100431.19;;;6.71;100.00
39265;BME280;42646;51.910;7.724;2023-11-21T01:04:27;100435.38;;;6.74;100.00
39265;BME280;42646;51.910;7.724;2023-11-21T01:06:56;100432.63;;;6.75;100.00
39265;BME280;42646;51.910;7.724;2023-11-21T01:09:23;100433.38;;;6.77;100.00
39265;BME280;42646;51.910;7.724;2023-11-21T01:11:52;100437.56;;;6.80;100.00
39265;BME280;42646;51.910;7.724;2023-11-21T01:14:20;100439.00;;;6.84;100.00
39265;BME280;42646;51.910;7.724;2023-11-21T01:16:47;100438.75;;;6.87;100.00
39265;BME280;42646;51.910;7.724;2023-11-21T01:19:15;100435.03;;;6.89;100.00
39265;BME280;42646;51.910;7.724;2023-11-21T01:21:43;100440.91;;;6.93;100.00
39265;BME280;42646;51.910;7.724;2023-11-21T01:24:12;100433.72;;;6.95;100.00
39265;BME280;42646;51.910;7.724;2023-11-21T01:26:40;100440.56;;;6.97;100.00
39265;BME280;42646;51.910;7.724;2023-11-21T01:29:08;100435.97;;;7.00;100.00
39265;BME280;42646;51.910;7.724;2023-11-21T01:31:35;100441.03;;;7.03;100.00
39265;BME280;42646;51.910;7.724;2023-11-21T01:34:03;100446.22;;;7.04;100.00
39265;BME280;42646;51.910;7.724;2023-11-21T01:36:31;100443.47;;;7.06;100.00
39265;BME280;42646;51.910;7.724;2023-11-21T01:38:59;100449.34;;;7.09;100.00
39265;BME280;42646;51.910;7.724;2023-11-21T01:41:29;100447.41;;;7.11;100.00
39265;BME280;42646;51.910;7.724;2023-11-21T01:43:57;100446.47;;;7.12;100.00
39265;BME280;42646;51.910;7.724;2023-11-21T01:46:24;100448.13;;;7.13;100.00
39265;BME280;42646;51.910;7.724;2023-11-21T01:48:52;100451.50;;;7.15;100.00
39265;BME280;42646;51.910;7.724;2023-11-21T01:51:21;100448.72;;;7.17;100.00
39265;BME280;42646;51.910;7.724;2023-11-21T01:53:49;100449.47;;;7.19;100.00
39265;BME280;42646;51.910;7.724;2023-11-21T01:56:17;100449.34;;;7.20;100.00
39265;BME280;42646;51.910;7.724;2023-11-21T01:58:46;100457.97;;;7.22;100.00
39265;BME280;42646;51.910;7.724;2023-11-21T02:01:14;100468.34;;;7.26;100.00
39265;BME280;42646;51.910;7.724;2023-11-21T02:03:42;100458.47;;;7.28;100.00
39265;BME280;42646;51.910;7.724;2023-11-21T02:06:09;100463.53;;;7.31;100.00
39265;BME280;42646;51.910;7.724;2023-11-21T02:08:37;100468.56;;;7.34;100.00
39265;BME280;42646;51.910;7.724;2023-11-21T02:11:06;100472.78;;;7.36;100.00
39265;BME280;42646;51.910;7.724;2023-11-21T02:13:33;100473.25;;;7.41;100.00
39265;BME280;42646;51.910;7.724;2023-11-21T02:16:02;100469.50;;;7.44;100.00
39265;BME280;42646;51.910;7.724;2023-11-21T02:18:31;100473.69;;;7.46;100.00
39265;BME280;42646;51.910;7.724;2023-11-21T02:21:00;100489.47;;;7.48;100.00
39265;BME280;42646;51.910;7.724;2023-11-21T02:23:30;100491.03;;;7.50;100.00
39265;BME280;42646;51.910;7.724;2023-11-21T02:25:58;100492.72;;;7.52;100.00
39265;BME280;42646;51.910;7.724;2023-11-21T02:28:30;100492.59;;;7.53;100.00
39265;BME280;42646;51.910;7.724;2023-11-21T02:30:59;100504.75;;;7.56;100.00
39265;BME280;42646;51.910;7.724;2023-11-21T02:33:29;100503.78;;;7.57;100.00
39265;BME280;42646;51.910;7.724;2023-11-21T02:36:00;100494.75;;;7.59;100.00
39265;BME280;42646;51.910;7.724;2023-11-21T02:38:28;100494.63;;;7.61;100.00
39265;BME280;42646;51.910;7.724;2023-11-21T02:40:58;100498.00;;;7.63;100.00
39265;BME280;42646;51.910;7.724;2023-11-21T02:43:26;100496.91;;;7.65;100.00
39265;BME280;42646;51.910;7.724;2023-11-21T02:45:54;100500.28;;;7.67;100.00
39265;BME280;42646;51.910;7.724;2023-11-21T02:48:21;100504.72;;;7.67;100.00
39265;BME280;42646;51.910;7.724;2023-11-21T02:50:51;100504.59;;;7.68;100.00
39265;BME280;42646;51.910;7.724;2023-11-21T02:53:19;100507.94;;;7.70;100.00
39265;BME280;42646;51.910;7.724;2023-11-21T02:55:47;100507.94;;;7.70;100.00
39265;BME280;42646;51.910;7.724;2023-11-21T02:58:16;100501.72;;;7.71;100.00
39265;BME280;42646;51.910;7.724;2023-11-21T03:00:44;100508.69;;;7.72;100.00
39265;BME280;42646;51.910;7.724;2023-11-21T03:03:12;100510.25;;;7.75;100.00
39265;BME280;42646;51.910;7.724;2023-11-21T03:05:41;100506.75;;;7.74;100.00
39265;BME280;42646;51.910;7.724;2023-11-21T03:08:09;100498.69;;;7.76;100.00
39265;BME280;42646;51.910;7.724;2023-11-21T03:10:37;100505.69;;;7.77;100.00
39265;BME280;42646;51.910;7.724;2023-11-21T03:13:04;100502.91;;;7.79;100.00
39265;BME280;42646;51.910;7.724;2023-11-21T03:15:33;100511.69;;;7.79;100.00
39265;BME280;42646;51.910;7.724;2023-11-21T03:18:02;100512.53;;;7.80;100.00
39265;BME280;42646;51.910;7.724;2023-11-21T03:20:30;100513.50;;;7.79;100.00
39265;BME280;42646;51.910;7.724;2023-11-21T03:22:57;100519.75;;;7.78;100.00
39265;BME280;42646;51.910;7.724;2023-11-21T03:25:27;100513.63;;;7.77;100.00
39265;BME280;42646;51.910;7.724;2023-11-21T03:27:55;100519.84;;;7.76;100.00
39265;BME280;42646;51.910;7.724;2023-11-21T03:30:23;100525.28;;;7.74;100.00
39265;BME280;42646;51.910;7.724;2023-11-21T03:32:52;100520.97;;;7.73;100.00
39265;BME280;42646;51.910;7.724;2023-11-21T03:35:20;100537.06;;;7.70;100.00
39265;BME280;42646;51.910;7.724;2023-11-21T03:37:48;100536.50;;;7.67;100.00
39265;BME280;42646;51.910;7.724;2023-11-21T03:40:16;100542.88;;;7.64;100.00
39265;BME280;42646;51.910;7.724;2023-11-21T03:42:43;100537.00;;;7.61;100.00
39265;BME280;42646;51.910;7.724;2023-11-21T03:45:11;100548.66;;;7.58;100.00
39265;BME280;42646;51.910;7.724;2023-11-21T03:47:40;100548.06;;;7.55;100.00
39265;BME280;42646;51.910;7.724;2023-11-21T03:50:09;100545.66;;;7.52;100.00
39265;BME280;42646;51.910;7.724;2023-11-21T03:52:37;100555.66;;;7.48;100.00
39265;BME280;42646;51.910;7.724;2023-11-21T03:55:05;100560.22;;;7.46;100.00
39265;BME280;42646;51.910;7.724;2023-11-21T03:57:32;100564.09;;;7.42;100.00
39265;BME280;42646;51.910;7.724;2023-11-21T04:00:00;100560.69;;;7.40;100.00
39265;BME280;42646;51.910;7.724;2023-11-21T04:02:37;100564.44;;;7.37;100.00
39265;BME280;42646;51.910;7.724;2023-11-21T04:05:06;100569.00;;;7.35;100.00
39265;BME280;42646;51.910;7.724;2023-11-21T04:07:35;100579.69;;;7.34;100.00
39265;BME280;42646;51.910;7.724;2023-11-21T04:10:05;100582.47;;;7.32;100.00
39265;BME280;42646;51.910;7.724;2023-11-21T04:12:35;100589.56;;;7.32;100.00
39265;BME280;42646;51.910;7.724;2023-11-21T04:15:03;100585.13;;;7.32;100.00
39265;BME280;42646;51.910;7.724;2023-11-21T04:17:30;100585.13;;;7.32;100.00
39265;BME280;42646;51.910;7.724;2023-11-21T04:19:58;100584.16;;;7.33;100.00
39265;BME280;42646;51.910;7.724;2023-11-21T04:22:26;100585.00;;;7.34;100.00
39265;BME280;42646;51.910;7.724;2023-11-21T04:24:55;100591.97;;;7.35;100.00
39265;BME280;42646;51.910;7.724;2023-11-21T04:27:23;100590.19;;;7.35;100.00
39265;BME280;42646;51.910;7.724;2023-11-21T04:29:50;100587.53;;;7.35;100.00
39265;BME280;42646;51.910;7.724;2023-11-21T04:32:18;100591.88;;;7.36;100.00
39265;BME280;42646;51.910;7.724;2023-11-21T04:34:46;100589.22;;;7.36;100.00
39265;BME280;42646;51.910;7.724;2023-11-21T04:37:13;100582.97;;;7.37;100.00
39265;BME280;42646;51.910;7.724;2023-11-21T04:39:41;100597.75;;;7.40;100.00
39265;BME280;42646;51.910;7.724;2023-11-21T04:42:10;100589.94;;;7.38;100.00
39265;BME280;42646;51.910;7.724;2023-11-21T04:44:39;100595.94;;;7.40;100.00
39265;BME280;42646;51.910;7.724;2023-11-21T04:47:07;100595.00;;;7.41;100.00
39265;BME280;42646;51.910;7.724;2023-11-21T04:49:35;100595.84;;;7.42;100.00
39265;BME280;42646;51.910;7.724;2023-11-21T04:52:03;100596.56;;;7.44;100.00
39265;BME280;42646;51.910;7.724;2023-11-21T04:54:31;100594.88;;;7.43;100.00
39265;BME280;42646;51.910;7.724;2023-11-21T04:56:58;100593.91;;;7.44;100.00
39265;BME280;42646;51.910;7.724;2023-11-21T04:59:28;100598.34;;;7.43;100.00
39265;BME280;42646;51.910;7.724;2023-11-21T05:01:56;100598.34;;;7.43;100.00
39265;BME280;42646;51.910;7.724;2023-11-21T05:04:23;100608.94;;;7.43;100.00
39265;BME280;42646;51.910;7.724;2023-11-21T05:06:51;100608.81;;;7.45;100.00
39265;BME280;42646;51.910;7.724;2023-11-21T05:09:19;100603.53;;;7.45;100.00
39265;BME280;42646;51.910;7.724;2023-11-21T05:11:48;100607.84;;;7.46;100.00
39265;BME280;42646;51.910;7.724;2023-11-21T05:14:16;100604.22;;;7.47;100.00
39265;BME280;42646;51.910;7.724;2023-11-21T05:16:46;100602.47;;;7.47;100.00
39265;BME280;42646;51.910;7.724;2023-11-21T05:19:14;100606.78;;;7.48;100.00
39265;BME280;42646;51.910;7.724;2023-11-21T05:21:42;100613.88;;;7.48;100.00
39265;BME280;42646;51.910;7.724;2023-11-21T05:24:09;100616.28;;;7.51;100.00
39265;BME280;42646;51.910;7.724;2023-11-21T05:26:37;100616.28;;;7.51;100.00
39265;BME280;42646;51.910;7.724;2023-11-21T05:29:05;100618.78;;;7.53;100.00
39265;BME280;42646;51.910;7.724;2023-11-21T05:31:33;100618.78;;;7.53;100.00
39265;BME280;42646;51.910;7.724;2023-11-21T05:34:02;100625.81;;;7.54;100.00
39265;BME280;42646;51.910;7.724;2023-11-21T05:36:31;100616.91;;;7.55;100.00
39265;BME280;42646;51.910;7.724;2023-11-21T05:38:59;100623.88;;;7.56;100.00
39265;BME280;42646;51.910;7.724;2023-11-21T05:41:26;100627.34;;;7.56;100.00
39265;BME280;42646;51.910;7.724;2023-11-21T05:43:54;100626.38;;;7.57;100.00
39265;BME280;42646;51.910;7.724;2023-11-21T05:46:22;100640.47;;;7.58;100.00
39265;BME280;42646;51.910;7.724;2023-11-21T05:48:49;100649.25;;;7.58;100.00
39265;BME280;42646;51.910;7.724;2023-11-21T05:51:18;100649.16;;;7.60;100.00
39265;BME280;42646;51.910;7.724;2023-11-21T05:53:46;100654.44;;;7.60;100.00
39265;BME280;42646;51.910;7.724;2023-11-21T05:56:14;100655.28;;;7.60;100.00
39265;BME280;42646;51.910;7.724;2023-11-21T05:58:41;100667.56;;;7.61;100.00
39265;BME280;42646;51.910;7.724;2023-11-21T06:01:09;100671.88;;;7.62;100.00
39265;BME280;42646;51.910;7.724;2023-11-21T06:03:39;100670.06;;;7.63;100.00
39265;BME280;42646;51.910;7.724;2023-11-21T06:06:08;100665.50;;;7.65;100.00
39265;BME280;42646;51.910;7.724;2023-11-21T06:08:37;100674.19;;;7.67;100.00
39265;BME280;42646;51.910;7.724;2023-11-21T06:11:04;100681.28;;;7.66;100.00
39265;BME280;42646;51.910;7.724;2023-11-21T06:13:32;100682.97;;;7.67;100.00
39265;BME280;42646;51.910;7.724;2023-11-21T06:16:00;100682.97;;;7.67;100.00
39265;BME280;42646;51.910;7.724;2023-11-21T06:18:27;100692.47;;;7.70;100.00
39265;BME280;42646;51.910;7.724;2023-11-21T06:20:55;100698.59;;;7.70;100.00
39265;BME280;42646;51.910;7.724;2023-11-21T06:23:23;100697.66;;;7.71;100.00
39265;BME280;42646;51.910;7.724;2023-11-21T06:25:52;100702.97;;;7.71;100.00
39265;BME280;42646;51.910;7.724;2023-11-21T06:28:20;100710.78;;;7.73;100.00
39265;BME280;42646;51.910;7.724;2023-11-21T06:30:48;100707.16;;;7.74;100.00
39265;BME280;42646;51.910;7.724;2023-11-21T06:33:17;100709.69;;;7.75;100.00
39265;BME280;42646;51.910;7.724;2023-11-21T06:35:44;100710.44;;;7.78;100.00
39265;BME280;42646;51.910;7.724;2023-11-21T06:38:12;100718.38;;;7.78;100.00
39265;BME280;42646;51.910;7.724;2023-11-21T06:40:40;100721.72;;;7.80;100.00
39265;BME280;42646;51.910;7.724;2023-11-21T06:43:09;100724.38;;;7.80;100.00
39265;BME280;42646;51.910;7.724;2023-11-21T06:45:36;100726.91;;;7.81;100.00
39265;BME280;42646;51.910;7.724;2023-11-21T06:48:05;100725.94;;;7.82;100.00
39265;BME280;42646;51.910;7.724;2023-11-21T06:50:32;100732.09;;;7.83;100.00
39265;BME280;42646;51.910;7.724;2023-11-21T06:53:00;100741.59;;;7.85;100.00
39265;BME280;42646;51.910;7.724;2023-11-21T06:55:31;100738.81;;;7.87;100.00
39265;BME280;42646;51.910;7.724;2023-11-21T06:57:59;100744.00;;;7.88;100.00
39265;BME280;42646;51.910;7.724;2023-11-21T07:00:28;100743.91;;;7.90;100.00
39265;BME280;42646;51.910;7.724;2023-11-21T07:02:56;100746.44;;;7.91;100.00
39265;BME280;42646;51.910;7.724;2023-11-21T07:05:24;100752.44;;;7.93;100.00
39265;BME280;42646;51.910;7.724;2023-11-21T07:07:52;100755.00;;;7.95;100.00
39265;BME280;42646;51.910;7.724;2023-11-21T07:10:21;100759.31;;;7.96;100.00
39265;BME280;42646;51.910;7.724;2023-11-21T07:12:48;100766.16;;;7.98;100.00
39265;BME280;42646;51.910;7.724;2023-11-21T07:15:17;100774.00;;;8.00;100.00
39265;BME280;42646;51.910;7.724;2023-11-21T07:17:47;100777.25;;;8.03;100.00
39265;BME280;42646;51.910;7.724;2023-11-21T07:20:15;100782.34;;;8.07;100.00
39265;BME280;42646;51.910;7.724;2023-11-21T07:22:43;100782.22;;;8.08;100.00
39265;BME280;42646;51.910;7.724;2023-11-21T07:25:11;100779.44;;;8.10;100.00
39265;BME280;42646;51.910;7.724;2023-11-21T07:27:39;100787.25;;;8.11;100.00
39265;BME280;42646;51.910;7.724;2023-11-21T07:30:08;100791.50;;;8.14;100.00
39265;BME280;42646;51.910;7.724;2023-11-21T07:32:36;100788.59;;;8.17;100.00
39265;BME280;42646;51.910;7.724;2023-11-21T07:35:08;100789.44;;;8.17;100.00
39265;BME280;42646;51.910;7.724;2023-11-21T07:37:37;100799.81;;;8.20;100.00
39265;BME280;42646;51.910;7.724;2023-11-21T07:40:06;100799.56;;;8.23;100.00
39265;BME280;42646;51.910;7.724;2023-11-21T07:42:35;100799.44;;;8.25;100.00
39265;BME280;42646;51.910;7.724;2023-11-21T07:45:03;100804.63;;;8.26;100.00
39265;BME280;42646;51.910;7.724;2023-11-21T07:47:31;100804.50;;;8.28;100.00
39265;BME280;42646;51.910;7.724;2023-11-21T07:50:02;100811.38;;;8.30;100.00
39265;BME280;42646;51.910;7.724;2023-11-21T07:52:31;100804.97;;;8.33;100.00
39265;BME280;42646;51.910;7.724;2023-11-21T07:54:59;100820.75;;;8.35;100.00
39265;BME280;42646;51.910;7.724;2023-11-21T07:57:28;100820.56;;;8.38;100.00
39265;BME280;42646;51.910;7.724;2023-11-21T07:59:55;100824.06;;;8.38;100.00
39265;BME280;42646;51.910;7.724;2023-11-21T08:02:23;100822.97;;;8.41;100.00
39265;BME280;42646;51.910;7.724;2023-11-21T08:04:52;100814.91;;;8.42;100.00
39265;BME280;42646;51.910;7.724;2023-11-21T08:07:20;100825.38;;;8.44;100.00
39265;BME280;42646;51.910;7.724;2023-11-21T08:09:49;100824.41;;;8.45;100.00
39265;BME280;42646;51.910;7.724;2023-11-21T08:12:17;100828.63;;;8.47;100.00
39265;BME280;42646;51.910;7.724;2023-11-21T08:14:46;100833.84;;;8.49;100.00
39265;BME280;42646;51.910;7.724;2023-11-21T08:17:14;100839.00;;;8.50;100.00
39265;BME280;42646;51.910;7.724;2023-11-21T08:19:44;100842.38;;;8.52;100.00
39265;BME280;42646;51.910;7.724;2023-11-21T08:22:15;100851.06;;;8.54;100.00
39265;BME280;42646;51.910;7.724;2023-11-21T08:24:44;100854.56;;;8.55;100.00
39265;BME280;42646;51.910;7.724;2023-11-21T08:27:14;100859.72;;;8.56;100.00
39265;BME280;42646;51.910;7.724;2023-11-21T08:29:43;100870.09;;;8.60;100.00
39265;BME280;42646;51.910;7.724;2023-11-21T08:32:10;100871.81;;;8.61;100.00
39265;BME280;42646;51.910;7.724;2023-11-21T08:34:38;100873.47;;;8.62;100.00
39265;BME280;42646;51.910;7.724;2023-11-21T08:37:09;100874.94;;;8.66;100.00
39265;BME280;42646;51.910;7.724;2023-11-21T08:39:37;100882.75;;;8.67;100.00
39265;BME280;42646;51.910;7.724;2023-11-21T08:42:05;100890.72;;;8.67;100.00
39265;BME280;42646;51.910;7.724;2023-11-21T08:44:34;100885.41;;;8.67;100.00
39265;BME280;42646;51.910;7.724;2023-11-21T08:47:02;100879.97;;;8.69;100.00
39265;BME280;42646;51.910;7.724;2023-11-21T08:49:34;100885.16;;;8.70;100.00
39265;BME280;42646;51.910;7.724;2023-11-21T08:52:01;100892.16;;;8.71;100.00
39265;BME280;42646;51.910;7.724;2023-11-21T08:54:31;100886.63;;;8.74;100.00
39265;BME280;42646;51.910;7.724;2023-11-21T08:57:00;100890.81;;;8.77;100.00
39265;BME280;42646;51.910;7.724;2023-11-21T08:59:28;100892.41;;;8.79;100.00
39265;BME280;42646;51.910;7.724;2023-11-21T09:01:57;100901.09;;;8.81;100.00
39265;BME280;42646;51.910;7.724;2023-11-21T09:04:25;100902.66;;;8.84;100.00
39265;BME280;42646;51.910;7.724;2023-11-21T09:06:53;100905.06;;;8.87;100.00
39265;BME280;42646;51.910;7.724;2023-11-21T09:09:21;100909.28;;;8.90;100.00
39265;BME280;42646;51.910;7.724;2023-11-21T09:11:51;100912.78;;;8.90;100.00
39265;BME280;42646;51.910;7.724;2023-11-21T09:14:18;100919.66;;;8.93;100.00
39265;BME280;42646;51.910;7.724;2023-11-21T09:16:46;100922.16;;;8.94;100.00
39265;BME280;42646;51.910;7.724;2023-11-21T09:19:15;100930.03;;;8.96;100.00
39265;BME280;42646;51.910;7.724;2023-11-21T09:21:43;100925.56;;;8.96;100.00
39265;BME280;42646;51.910;7.724;2023-11-21T09:24:11;100926.16;;;9.00;100.00
39265;BME280;42646;51.910;7.724;2023-11-21T09:26:38;100928.72;;;9.01;100.00
39265;BME280;42646;51.910;7.724;2023-11-21T09:29:06;100936.53;;;9.03;100.00
39265;BME280;42646;51.910;7.724;2023-11-21T09:31:34;100943.66;;;9.02;100.00
39265;BME280;42646;51.910;7.724;2023-11-21T09:34:02;100940.75;;;9.05;100.00
39265;BME280;42646;51.910;7.724;2023-11-21T09:36:31;100941.72;;;9.04;100.00
39265;BME280;42646;51.910;7.724;2023-11-21T09:39:00;100948.84;;;9.04;100.00
39265;BME280;42646;51.910;7.724;2023-11-21T09:41:33;100954.03;;;9.05;100.00
39265;BME280;42646;51.910;7.724;2023-11-21T09:44:08;100949.44;;;9.07;100.00
39265;BME280;42646;51.910;7.724;2023-11-21T09:46:41;100954.84;;;9.06;100.00
39265;BME280;42646;51.910;7.724;2023-11-21T09:49:10;100952.69;;;9.11;100.00
39265;BME280;42646;51.910;7.724;2023-11-21T09:51:42;100967.66;;;9.12;100.00
39265;BME280;42646;51.910;7.724;2023-11-21T09:54:11;100965.25;;;9.09;100.00
39265;BME280;42646;51.910;7.724;2023-11-21T09:56:40;100967.06;;;9.08;100.00
39265;BME280;42646;51.910;7.724;2023-11-21T09:59:13;100977.53;;;9.10;100.00
39265;BME280;42646;51.910;7.724;2023-11-21T10:01:42;100975.59;;;9.12;100.00
39265;BME280;42646;51.910;7.724;2023-11-21T10:04:10;100972.00;;;9.13;100.00
39265;BME280;42646;51.910;7.724;2023-11-21T10:06:40;100970.19;;;9.14;100.00
39265;BME280;42646;51.910;7.724;2023-11-21T10:09:10;100976.34;;;9.14;100.00
39265;BME280;42646;51.910;7.724;2023-11-21T10:11:40;100973.56;;;9.16;100.00
39265;BME280;42646;51.910;7.724;2023-11-21T10:14:10;100984.81;;;9.19;100.00
39265;BME280;42646;51.910;7.724;2023-11-21T10:16:40;100981.28;;;9.19;100.00
39265;BME280;42646;51.910;7.724;2023-11-21T10:19:09;100988.16;;;9.21;100.00
39265;BME280;42646;51.910;7.724;2023-11-21T10:21:41;100984.41;;;9.24;100.00
39265;BME280;42646;51.910;7.724;2023-11-21T10:24:09;100989.72;;;9.24;100.00
39265;BME280;42646;51.910;7.724;2023-11-21T10:26:39;100986.97;;;9.25;100.00
39265;BME280;42646;51.910;7.724;2023-11-21T10:29:19;100993.97;;;9.26;100.00
39265;BME280;42646;51.910;7.724;2023-11-21T10:31:49;100983.22;;;9.28;100.00
39265;BME280;42646;51.910;7.724;2023-11-21T10:34:18;100992.72;;;9.30;100.00
39265;BME280;42646;51.910;7.724;2023-11-21T10:36:48;100987.31;;;9.32;100.00
39265;BME280;42646;51.910;7.724;2023-11-21T10:39:17;100999.63;;;9.33;100.00
39265;BME280;42646;51.910;7.724;2023-11-21T10:41:46;101004.81;;;9.34;100.00
39265;BME280;42646;51.910;7.724;2023-11-21T10:44:14;101008.16;;;9.36;100.00
39265;BME280;42646;51.910;7.724;2023-11-21T10:46:46;101009.03;;;9.37;100.00
39265;BME280;42646;51.910;7.724;2023-11-21T10:49:17;101016.03;;;9.38;100.00
39265;BME280;42646;51.910;7.724;2023-11-21T10:51:47;101017.00;;;9.37;100.00
39265;BME280;42646;51.910;7.724;2023-11-21T10:54:18;101010.72;;;9.38;100.00
39265;BME280;42646;51.910;7.724;2023-11-21T10:56:48;101018.56;;;9.40;100.00
39265;BME280;42646;51.910;7.724;2023-11-21T10:59:18;101018.56;;;9.40;100.00
39265;BME280;42646;51.910;7.724;2023-11-21T11:01:47;101020.25;;;9.41;100.00
39265;BME280;42646;51.910;7.724;2023-11-21T11:04:18;101029.19;;;9.40;100.00
39265;BME280;42646;51.910;7.724;2023-11-21T11:06:51;101022.06;;;9.40;100.00
39265;BME280;42646;51.910;7.724;2023-11-21T11:09:21;101031.72;;;9.41;100.00
39265;BME280;42646;51.910;7.724;2023-11-21T11:11:51;101028.22;;;9.41;100.00
39265;BME280;42646;51.910;7.724;2023-11-21T11:14:19;101038.00;;;9.40;100.00
39265;BME280;42646;51.910;7.724;2023-11-21T11:16:53;101038.69;;;9.42;100.00
39265;BME280;42646;51.910;7.724;2023-11-21T11:19:21;101039.53;;;9.43;100.00
39265;BME280;42646;51.910;7.724;2023-11-21T11:21:59;101039.44;;;9.44;100.00
39265;BME280;42646;51.910;7.724;2023-11-21T11:24:41;101036.66;;;9.46;100.00
39265;BME280;42646;51.910;7.724;2023-11-21T11:27:21;101032.81;;;9.50;100.00
39265;BME280;42646;51.910;7.724;2023-11-21T11:30:00;101039.09;;;9.49;100.00
39265;BME280;42646;51.910;7.724;2023-11-21T11:32:40;101037.38;;;9.48;100.00
39265;BME280;42646;51.910;7.724;2023-11-21T11:35:14;101026.03;;;9.46;100.00
39265;BME280;42646;51.910;7.724;2023-11-21T11:37:46;101037.50;;;9.46;100.00
39265;BME280;42646;51.910;7.724;2023-11-21T11:40:14;101041.00;;;9.47;100.00
39265;BME280;42646;51.910;7.724;2023-11-21T11:42:56;101050.66;;;9.48;100.00
39265;BME280;42646;51.910;7.724;2023-11-21T11:45:25;101048.75;;;9.50;100.00
39265;BME280;42646;51.910;7.724;2023-11-21T11:48:00;101049.59;;;9.50;100.00
39265;BME280;42646;51.910;7.724;2023-11-21T11:50:29;101040.50;;;9.53;100.00
39265;BME280;42646;51.910;7.724;2023-11-21T11:53:12;101044.84;;;9.54;100.00
39265;BME280;42646;51.910;7.724;2023-11-21T11:55:40;101051.50;;;9.59;100.00
39265;BME280;42646;51.910;7.724;2023-11-21T11:58:08;101065.16;;;9.55;100.00
39265;BME280;42646;51.910;7.724;2023-11-21T12:00:36;101068.66;;;9.55;100.00
39265;BME280;42646;51.910;7.724;2023-11-21T12:03:09;101061.53;;;9.56;100.00
39265;BME280;42646;51.910;7.724;2023-11-21T12:05:37;101058.75;;;9.57;100.00
39265;BME280;42646;51.910;7.724;2023-11-21T12:08:08;101061.53;;;9.56;100.00
39265;BME280;42646;51.910;7.724;2023-11-21T12:10:37;101072.25;;;9.54;100.00
39265;BME280;42646;51.910;7.724;2023-11-21T12:13:07;101073.13;;;9.55;100.00
39265;BME280;42646;51.910;7.724;2023-11-21T12:15:35;101069.72;;;9.53;100.00
39265;BME280;42646;51.910;7.724;2023-11-21T12:18:04;101080.34;;;9.53;100.00
39265;BME280;42646;51.910;7.724;2023-11-21T12:20:33;101089.44;;;9.50;100.00
39265;BME280;42646;51.910;7.724;2023-11-21T12:23:05;101094.88;;;9.49;100.00
39265;BME280;42646;51.910;7.724;2023-11-21T12:25:36;101102.44;;;9.53;100.00
39265;BME280;42646;51.910;7.724;2023-11-21T12:28:06;101098.72;;;9.45;100.00
39265;BME280;42646;51.910;7.724;2023-11-21T12:30:35;101104.16;;;9.43;100.00
39265;BME280;42646;51.910;7.724;2023-11-21T12:33:06;101107.66;;;9.44;100.00
39265;BME280;42646;51.910;7.724;2023-11-21T12:35:36;101112.13;;;9.43;100.00
39265;BME280;42646;51.910;7.724;2023-11-21T12:38:04;101102.44;;;9.42;100.00
39265;BME280;42646;51.910;7.724;2023-11-21T12:40:32;101108.84;;;9.40;100.00
39265;BME280;42646;51.910;7.724;2023-11-21T12:43:02;101107.16;;;9.39;100.00
39265;BME280;42646;51.910;7.724;2023-11-21T12:45:31;101119.69;;;9.36;100.00
39265;BME280;42646;51.910;7.724;2023-11-21T12:48:01;101115.34;;;9.35;100.00
39265;BME280;42646;51.910;7.724;2023-11-21T12:50:34;101121.63;;;9.34;100.00
39265;BME280;42646;51.910;7.724;2023-11-21T12:53:05;101133.34;;;9.32;100.00
39265;BME280;42646;51.910;7.724;2023-11-21T12:55:35;101130.91;;;9.29;100.00
39265;BME280;42646;51.910;7.724;2023-11-21T12:58:07;101134.53;;;9.28;100.00